This is the latest recevied weather packets stored in our database for station/object OM2RC-6. If no packets are shown the sender has not sent any weather packets the latest 10 day(s).
| Time | Temp. | Humidity | Pressure | Rain* | Wind** | Luminosity | Snow |
|---|---|---|---|---|---|---|---|
| 1777598101 | 1.11° C | 100% | 1030.3 hPa | - | - | - | - |
| 1777597499 | 1.67° C | 100% | 1030.2 hPa | - | - | - | - |
| 1777597198 | 1.67° C | 100% | 1030.2 hPa | - | - | - | - |
| 1777596897 | 2.22° C | 100% | 1030.1 hPa | - | - | - | - |
| 1777596596 | 1.67° C | 100% | 1030.2 hPa | - | - | - | - |
| 1777596295 | 2.22° C | 100% | 1030.2 hPa | - | - | - | - |
| 1777595994 | 1.67° C | 100% | 1030.2 hPa | - | - | - | - |
| 1777595693 | 1.67° C | 100% | 1030.2 hPa | - | - | - | - |
| 1777595392 | 2.22° C | 100% | 1030.2 hPa | - | - | - | - |
| 1777595091 | 2.78° C | 100% | 1030.1 hPa | - | - | - | - |
| 1777594790 | 2.78° C | 100% | 1030.1 hPa | - | - | - | - |
| 1777594489 | 2.22° C | 100% | 1030.1 hPa | - | - | - | - |
| 1777594188 | 2.78° C | 100% | 1030.2 hPa | - | - | - | - |
| 1777593887 | 2.22° C | 100% | 1030.3 hPa | - | - | - | - |
| 1777592683 | 3.89° C | 95% | 1030.2 hPa | - | - | - | - |
| 1777592382 | 3.89° C | 95% | 1030.1 hPa | - | - | - | - |
| 1777591780 | 2.78° C | 100% | 1030.3 hPa | - | - | - | - |
| 1777591177 | 3.89° C | 95% | 1030.3 hPa | - | - | - | - |
| 1777590876 | 3.33° C | 97% | 1030.3 hPa | - | - | - | - |
| 1777590575 | 2.78° C | 100% | 1030.3 hPa | - | - | - | - |
| 1777590275 | 2.78° C | 100% | 1030.3 hPa | - | - | - | - |
| 1777589973 | 3.33° C | 100% | 1030.2 hPa | - | - | - | - |
| 1777589069 | 3.33° C | 94% | 1030.2 hPa | - | - | - | - |
| 1777588467 | 3.89° C | 90% | 1030.2 hPa | - | - | - | - |
| 1777588166 | 4.44° C | 85% | 1030.1 hPa | - | - | - | - |
* Rain since midnight (hover to see other rain measurements)
** Current wind speed in m/s (hover to see current wind gust speed)